sensor_id;sensor_type;location;lat;lon;timestamp;P1;durP1;ratioP1;P2;durP2;ratioP2
19973;SDS011;10148;47.694;9.442;2023-03-24T00:00:15;3.90;;;2.70;;
19973;SDS011;10148;47.694;9.442;2023-03-24T00:02:44;4.40;;;2.90;;
19973;SDS011;10148;47.694;9.442;2023-03-24T00:05:12;3.67;;;2.63;;
19973;SDS011;10148;47.694;9.442;2023-03-24T00:07:42;3.15;;;2.65;;
19973;SDS011;10148;47.694;9.442;2023-03-24T00:10:10;4.00;;;2.88;;
19973;SDS011;10148;47.694;9.442;2023-03-24T00:12:38;4.93;;;2.70;;
19973;SDS011;10148;47.694;9.442;2023-03-24T00:15:07;3.40;;;2.70;;
19973;SDS011;10148;47.694;9.442;2023-03-24T00:17:35;6.10;;;2.75;;
19973;SDS011;10148;47.694;9.442;2023-03-24T00:20:03;5.40;;;2.80;;
19973;SDS011;10148;47.694;9.442;2023-03-24T00:22:38;4.25;;;2.50;;
19973;SDS011;10148;47.694;9.442;2023-03-24T00:25:18;2.80;;;2.45;;
19973;SDS011;10148;47.694;9.442;2023-03-24T00:27:51;5.03;;;2.60;;
19973;SDS011;10148;47.694;9.442;2023-03-24T00:30:18;3.15;;;2.70;;
19973;SDS011;10148;47.694;9.442;2023-03-24T00:32:44;3.75;;;2.50;;
19973;SDS011;10148;47.694;9.442;2023-03-24T00:35:11;3.13;;;2.47;;
19973;SDS011;10148;47.694;9.442;2023-03-24T00:37:38;2.42;;;2.20;;
19973;SDS011;10148;47.694;9.442;2023-03-24T00:40:06;5.78;;;2.63;;
19973;SDS011;10148;47.694;9.442;2023-03-24T00:42:36;3.72;;;2.80;;
19973;SDS011;10148;47.694;9.442;2023-03-24T00:45:03;2.75;;;2.40;;
19973;SDS011;10148;47.694;9.442;2023-03-24T00:47:31;3.53;;;2.28;;
19973;SDS011;10148;47.694;9.442;2023-03-24T00:50:00;3.50;;;2.60;;
19973;SDS011;10148;47.694;9.442;2023-03-24T00:52:27;3.15;;;2.60;;
19973;SDS011;10148;47.694;9.442;2023-03-24T00:54:57;4.80;;;3.03;;
19973;SDS011;10148;47.694;9.442;2023-03-24T00:57:25;3.58;;;3.20;;
19973;SDS011;10148;47.694;9.442;2023-03-24T00:59:54;4.30;;;3.15;;
19973;SDS011;10148;47.694;9.442;2023-03-24T01:02:22;5.45;;;2.90;;
19973;SDS011;10148;47.694;9.442;2023-03-24T01:04:52;4.55;;;3.40;;
19973;SDS011;10148;47.694;9.442;2023-03-24T01:07:20;6.40;;;3.35;;
19973;SDS011;10148;47.694;9.442;2023-03-24T01:09:46;4.30;;;3.05;;
19973;SDS011;10148;47.694;9.442;2023-03-24T01:12:21;6.10;;;3.08;;
19973;SDS011;10148;47.694;9.442;2023-03-24T01:14:58;5.22;;;3.88;;
19973;SDS011;10148;47.694;9.442;2023-03-24T01:17:29;5.32;;;3.50;;
19973;SDS011;10148;47.694;9.442;2023-03-24T01:19:55;5.10;;;3.47;;
19973;SDS011;10148;47.694;9.442;2023-03-24T01:22:21;5.47;;;3.47;;
19973;SDS011;10148;47.694;9.442;2023-03-24T01:24:52;3.25;;;2.90;;
19973;SDS011;10148;47.694;9.442;2023-03-24T01:27:18;4.57;;;3.30;;
19973;SDS011;10148;47.694;9.442;2023-03-24T01:29:43;3.72;;;3.35;;
19973;SDS011;10148;47.694;9.442;2023-03-24T01:32:10;5.20;;;3.10;;
19973;SDS011;10148;47.694;9.442;2023-03-24T01:34:36;4.75;;;3.70;;
19973;SDS011;10148;47.694;9.442;2023-03-24T01:37:01;5.20;;;3.50;;
19973;SDS011;10148;47.694;9.442;2023-03-24T01:39:27;6.60;;;3.50;;
19973;SDS011;10148;47.694;9.442;2023-03-24T01:41:53;3.85;;;3.25;;
19973;SDS011;10148;47.694;9.442;2023-03-24T01:44:32;7.05;;;4.45;;
19973;SDS011;10148;47.694;9.442;2023-03-24T01:47:00;5.57;;;3.42;;
19973;SDS011;10148;47.694;9.442;2023-03-24T01:49:37;4.75;;;3.20;;
19973;SDS011;10148;47.694;9.442;2023-03-24T01:52:09;3.55;;;3.08;;
19973;SDS011;10148;47.694;9.442;2023-03-24T01:55:01;4.20;;;3.08;;
19973;SDS011;10148;47.694;9.442;2023-03-24T01:57:36;4.70;;;3.50;;
19973;SDS011;10148;47.694;9.442;2023-03-24T02:00:08;4.50;;;3.25;;
19973;SDS011;10148;47.694;9.442;2023-03-24T02:02:37;7.35;;;3.67;;
19973;SDS011;10148;47.694;9.442;2023-03-24T02:05:06;4.10;;;3.40;;
19973;SDS011;10148;47.694;9.442;2023-03-24T02:07:35;6.60;;;3.25;;
19973;SDS011;10148;47.694;9.442;2023-03-24T02:10:18;3.58;;;2.97;;
19973;SDS011;10148;47.694;9.442;2023-03-24T02:12:44;6.25;;;3.42;;
19973;SDS011;10148;47.694;9.442;2023-03-24T02:15:12;6.28;;;3.60;;
19973;SDS011;10148;47.694;9.442;2023-03-24T02:28:24;4.50;;;3.65;;
19973;SDS011;10148;47.694;9.442;2023-03-24T02:31:23;5.50;;;3.42;;
19973;SDS011;10148;47.694;9.442;2023-03-24T02:36:54;4.63;;;3.13;;
19973;SDS011;10148;47.694;9.442;2023-03-24T02:39:57;4.45;;;3.38;;
19973;SDS011;10148;47.694;9.442;2023-03-24T02:42:29;4.20;;;3.35;;
19973;SDS011;10148;47.694;9.442;2023-03-24T02:45:19;5.40;;;3.80;;
19973;SDS011;10148;47.694;9.442;2023-03-24T02:55:52;8.60;;;4.25;;
19973;SDS011;10148;47.694;9.442;2023-03-24T02:58:25;6.50;;;4.22;;
19973;SDS011;10148;47.694;9.442;2023-03-24T03:01:01;6.15;;;4.50;;
19973;SDS011;10148;47.694;9.442;2023-03-24T03:03:37;4.43;;;3.90;;
19973;SDS011;10148;47.694;9.442;2023-03-24T03:06:15;5.43;;;4.10;;
19973;SDS011;10148;47.694;9.442;2023-03-24T03:08:46;6.97;;;4.57;;
19973;SDS011;10148;47.694;9.442;2023-03-24T03:11:14;4.40;;;3.47;;
19973;SDS011;10148;47.694;9.442;2023-03-24T03:13:54;8.40;;;4.13;;
19973;SDS011;10148;47.694;9.442;2023-03-24T03:16:38;7.15;;;4.20;;
19973;SDS011;10148;47.694;9.442;2023-03-24T03:19:18;6.35;;;4.32;;
19973;SDS011;10148;47.694;9.442;2023-03-24T03:21:47;6.03;;;3.85;;
19973;SDS011;10148;47.694;9.442;2023-03-24T03:24:16;7.35;;;4.25;;
19973;SDS011;10148;47.694;9.442;2023-03-24T03:26:53;7.80;;;4.35;;
19973;SDS011;10148;47.694;9.442;2023-03-24T03:29:25;4.90;;;4.00;;
19973;SDS011;10148;47.694;9.442;2023-03-24T03:31:55;6.65;;;3.97;;
19973;SDS011;10148;47.694;9.442;2023-03-24T03:34:45;6.20;;;4.30;;
19973;SDS011;10148;47.694;9.442;2023-03-24T03:37:22;5.40;;;4.13;;
19973;SDS011;10148;47.694;9.442;2023-03-24T03:39:55;4.82;;;4.32;;
19973;SDS011;10148;47.694;9.442;2023-03-24T03:42:33;6.22;;;4.47;;
19973;SDS011;10148;47.694;9.442;2023-03-24T03:44:59;6.43;;;4.43;;
19973;SDS011;10148;47.694;9.442;2023-03-24T03:47:25;5.25;;;4.35;;
19973;SDS011;10148;47.694;9.442;2023-03-24T03:49:51;5.57;;;4.28;;
19973;SDS011;10148;47.694;9.442;2023-03-24T03:52:16;5.18;;;4.53;;
19973;SDS011;10148;47.694;9.442;2023-03-24T03:54:42;6.15;;;4.38;;
19973;SDS011;10148;47.694;9.442;2023-03-24T03:57:09;5.10;;;4.53;;
19973;SDS011;10148;47.694;9.442;2023-03-24T03:59:37;5.80;;;4.45;;
19973;SDS011;10148;47.694;9.442;2023-03-24T04:02:17;6.05;;;4.80;;
19973;SDS011;10148;47.694;9.442;2023-03-24T04:05:09;7.53;;;4.70;;
19973;SDS011;10148;47.694;9.442;2023-03-24T04:15:35;6.43;;;4.88;;
19973;SDS011;10148;47.694;9.442;2023-03-24T04:30:17;5.85;;;4.78;;
19973;SDS011;10148;47.694;9.442;2023-03-24T04:33:43;4.80;;;4.30;;
19973;SDS011;10148;47.694;9.442;2023-03-24T04:35:56;5.38;;;4.57;;
19973;SDS011;10148;47.694;9.442;2023-03-24T04:38:30;6.68;;;4.63;;
19973;SDS011;10148;47.694;9.442;2023-03-24T04:40:59;7.00;;;4.20;;
19973;SDS011;10148;47.694;9.442;2023-03-24T04:43:27;6.63;;;4.40;;
19973;SDS011;10148;47.694;9.442;2023-03-24T04:45:59;6.03;;;4.30;;
19973;SDS011;10148;47.694;9.442;2023-03-24T04:48:28;7.18;;;4.50;;
19973;SDS011;10148;47.694;9.442;2023-03-24T04:50:55;5.45;;;4.65;;
19973;SDS011;10148;47.694;9.442;2023-03-24T04:53:22;4.90;;;4.13;;
19973;SDS011;10148;47.694;9.442;2023-03-24T04:56:02;6.57;;;4.43;;
19973;SDS011;10148;47.694;9.442;2023-03-24T04:58:28;7.53;;;4.60;;
19973;SDS011;10148;47.694;9.442;2023-03-24T05:00:54;5.18;;;4.25;;
19973;SDS011;10148;47.694;9.442;2023-03-24T05:03:20;7.10;;;4.53;;
19973;SDS011;10148;47.694;9.442;2023-03-24T05:05:47;6.32;;;4.53;;
19973;SDS011;10148;47.694;9.442;2023-03-24T05:08:14;6.13;;;4.57;;
19973;SDS011;10148;47.694;9.442;2023-03-24T05:10:41;7.90;;;5.10;;
19973;SDS011;10148;47.694;9.442;2023-03-24T05:13:07;5.82;;;4.45;;
19973;SDS011;10148;47.694;9.442;2023-03-24T05:15:33;6.82;;;4.82;;
19973;SDS011;10148;47.694;9.442;2023-03-24T05:17:59;7.78;;;5.68;;
19973;SDS011;10148;47.694;9.442;2023-03-24T05:20:25;6.50;;;5.20;;
19973;SDS011;10148;47.694;9.442;2023-03-24T05:22:51;7.00;;;5.35;;
19973;SDS011;10148;47.694;9.442;2023-03-24T05:25:17;8.18;;;6.18;;
19973;SDS011;10148;47.694;9.442;2023-03-24T05:27:43;6.88;;;5.57;;
19973;SDS011;10148;47.694;9.442;2023-03-24T05:30:09;9.55;;;6.90;;
19973;SDS011;10148;47.694;9.442;2023-03-24T05:32:37;7.55;;;6.20;;
19973;SDS011;10148;47.694;9.442;2023-03-24T05:35:03;6.82;;;5.85;;
19973;SDS011;10148;47.694;9.442;2023-03-24T05:37:29;7.90;;;6.45;;
19973;SDS011;10148;47.694;9.442;2023-03-24T05:39:55;9.05;;;6.30;;
19973;SDS011;10148;47.694;9.442;2023-03-24T05:42:21;8.73;;;5.97;;
19973;SDS011;10148;47.694;9.442;2023-03-24T05:44:46;8.55;;;6.47;;
19973;SDS011;10148;47.694;9.442;2023-03-24T05:47:12;8.45;;;6.10;;
19973;SDS011;10148;47.694;9.442;2023-03-24T05:49:40;9.15;;;6.10;;
19973;SDS011;10148;47.694;9.442;2023-03-24T05:52:07;8.02;;;6.15;;
19973;SDS011;10148;47.694;9.442;2023-03-24T05:54:34;7.80;;;5.63;;
19973;SDS011;10148;47.694;9.442;2023-03-24T05:57:00;9.27;;;5.78;;
19973;SDS011;10148;47.694;9.442;2023-03-24T05:59:26;7.80;;;5.93;;
19973;SDS011;10148;47.694;9.442;2023-03-24T06:01:52;9.10;;;5.53;;
19973;SDS011;10148;47.694;9.442;2023-03-24T06:04:20;8.40;;;6.15;;
19973;SDS011;10148;47.694;9.442;2023-03-24T06:06:47;8.15;;;5.97;;
19973;SDS011;10148;47.694;9.442;2023-03-24T06:09:12;8.25;;;5.45;;
19973;SDS011;10148;47.694;9.442;2023-03-24T06:11:40;6.50;;;5.13;;
19973;SDS011;10148;47.694;9.442;2023-03-24T06:14:09;4.78;;;3.88;;
19973;SDS011;10148;47.694;9.442;2023-03-24T06:16:35;5.93;;;4.63;;
19973;SDS011;10148;47.694;9.442;2023-03-24T06:19:04;7.30;;;4.80;;
19973;SDS011;10148;47.694;9.442;2023-03-24T06:21:31;5.82;;;4.32;;
19973;SDS011;10148;47.694;9.442;2023-03-24T06:23:57;5.45;;;4.22;;
19973;SDS011;10148;47.694;9.442;2023-03-24T06:26:23;6.85;;;4.82;;
19973;SDS011;10148;47.694;9.442;2023-03-24T06:28:49;4.15;;;3.60;;
19973;SDS011;10148;47.694;9.442;2023-03-24T06:31:18;5.28;;;3.80;;
19973;SDS011;10148;47.694;9.442;2023-03-24T06:33:46;4.60;;;3.88;;
19973;SDS011;10148;47.694;9.442;2023-03-24T06:36:12;7.40;;;4.35;;
19973;SDS011;10148;47.694;9.442;2023-03-24T06:38:38;5.82;;;4.63;;
19973;SDS011;10148;47.694;9.442;2023-03-24T06:41:06;5.43;;;4.07;;
19973;SDS011;10148;47.694;9.442;2023-03-24T06:43:32;4.65;;;3.75;;
19973;SDS011;10148;47.694;9.442;2023-03-24T06:45:58;3.92;;;3.10;;
19973;SDS011;10148;47.694;9.442;2023-03-24T06:48:24;4.93;;;3.47;;
19973;SDS011;10148;47.694;9.442;2023-03-24T06:50:53;5.78;;;3.78;;
19973;SDS011;10148;47.694;9.442;2023-03-24T06:53:20;4.97;;;3.80;;
19973;SDS011;10148;47.694;9.442;2023-03-24T06:55:46;5.68;;;4.32;;
19973;SDS011;10148;47.694;9.442;2023-03-24T06:58:12;4.88;;;3.95;;
19973;SDS011;10148;47.694;9.442;2023-03-24T07:00:39;8.27;;;3.88;;
19973;SDS011;10148;47.694;9.442;2023-03-24T07:03:05;7.15;;;4.13;;
19973;SDS011;10148;47.694;9.442;2023-03-24T07:05:32;9.27;;;4.35;;
19973;SDS011;10148;47.694;9.442;2023-03-24T07:08:02;6.43;;;4.25;;
19973;SDS011;10148;47.694;9.442;2023-03-24T07:10:28;7.18;;;4.28;;
19973;SDS011;10148;47.694;9.442;2023-03-24T07:12:53;7.15;;;4.60;;
19973;SDS011;10148;47.694;9.442;2023-03-24T07:15:19;8.05;;;4.07;;
19973;SDS011;10148;47.694;9.442;2023-03-24T07:17:44;6.82;;;3.50;;
19973;SDS011;10148;47.694;9.442;2023-03-24T07:20:10;8.88;;;4.25;;
19973;SDS011;10148;47.694;9.442;2023-03-24T07:22:36;5.60;;;4.07;;
19973;SDS011;10148;47.694;9.442;2023-03-24T07:25:02;5.32;;;3.50;;
19973;SDS011;10148;47.694;9.442;2023-03-24T07:27:29;6.25;;;4.03;;
19973;SDS011;10148;47.694;9.442;2023-03-24T07:29:59;4.97;;;4.28;;
19973;SDS011;10148;47.694;9.442;2023-03-24T07:32:25;5.47;;;3.83;;
19973;SDS011;10148;47.694;9.442;2023-03-24T07:34:52;4.07;;;3.65;;
19973;SDS011;10148;47.694;9.442;2023-03-24T07:37:18;5.95;;;4.13;;
19973;SDS011;10148;47.694;9.442;2023-03-24T07:39:43;7.22;;;4.68;;
19973;SDS011;10148;47.694;9.442;2023-03-24T07:42:09;5.70;;;4.57;;
19973;SDS011;10148;47.694;9.442;2023-03-24T07:44:34;5.47;;;4.07;;
19973;SDS011;10148;47.694;9.442;2023-03-24T07:47:00;5.20;;;3.88;;
19973;SDS011;10148;47.694;9.442;2023-03-24T07:49:26;6.40;;;4.63;;
19973;SDS011;10148;47.694;9.442;2023-03-24T07:51:51;6.10;;;4.10;;
19973;SDS011;10148;47.694;9.442;2023-03-24T07:54:17;6.85;;;4.32;;
19973;SDS011;10148;47.694;9.442;2023-03-24T07:56:42;7.28;;;4.32;;
19973;SDS011;10148;47.694;9.442;2023-03-24T07:59:08;7.45;;;4.32;;
19973;SDS011;10148;47.694;9.442;2023-03-24T08:01:34;9.07;;;5.28;;
19973;SDS011;10148;47.694;9.442;2023-03-24T08:04:02;6.68;;;4.28;;
19973;SDS011;10148;47.694;9.442;2023-03-24T08:06:28;7.78;;;5.43;;
19973;SDS011;10148;47.694;9.442;2023-03-24T08:08:54;8.20;;;5.57;;
19973;SDS011;10148;47.694;9.442;2023-03-24T08:11:19;6.53;;;4.28;;
19973;SDS011;10148;47.694;9.442;2023-03-24T08:13:45;6.28;;;4.57;;
19973;SDS011;10148;47.694;9.442;2023-03-24T08:16:11;7.57;;;4.75;;
19973;SDS011;10148;47.694;9.442;2023-03-24T08:18:36;5.85;;;4.28;;
19973;SDS011;10148;47.694;9.442;2023-03-24T08:21:02;6.60;;;4.05;;
19973;SDS011;10148;47.694;9.442;2023-03-24T08:23:28;6.75;;;4.20;;
19973;SDS011;10148;47.694;9.442;2023-03-24T08:25:53;4.55;;;3.88;;
19973;SDS011;10148;47.694;9.442;2023-03-24T08:28:19;5.13;;;3.72;;
19973;SDS011;10148;47.694;9.442;2023-03-24T08:30:45;5.22;;;4.10;;
19973;SDS011;10148;47.694;9.442;2023-03-24T08:33:11;6.68;;;4.40;;
19973;SDS011;10148;47.694;9.442;2023-03-24T08:35:38;8.95;;;4.40;;
19973;SDS011;10148;47.694;9.442;2023-03-24T08:38:05;6.93;;;4.03;;
19973;SDS011;10148;47.694;9.442;2023-03-24T08:40:32;5.90;;;3.92;;
19973;SDS011;10148;47.694;9.442;2023-03-24T08:43:00;5.50;;;4.20;;
19973;SDS011;10148;47.694;9.442;2023-03-24T08:45:28;9.80;;;4.68;;
19973;SDS011;10148;47.694;9.442;2023-03-24T08:47:56;5.28;;;4.43;;
19973;SDS011;10148;47.694;9.442;2023-03-24T08:50:24;7.57;;;4.47;;
19973;SDS011;10148;47.694;9.442;2023-03-24T08:52:52;5.25;;;4.25;;
19973;SDS011;10148;47.694;9.442;2023-03-24T08:55:19;6.35;;;4.45;;
19973;SDS011;10148;47.694;9.442;2023-03-24T08:57:46;5.40;;;4.40;;
19973;SDS011;10148;47.694;9.442;2023-03-24T09:00:12;5.25;;;4.22;;
19973;SDS011;10148;47.694;9.442;2023-03-24T09:02:46;8.75;;;4.95;;
19973;SDS011;10148;47.694;9.442;2023-03-24T09:05:14;7.80;;;4.80;;
19973;SDS011;10148;47.694;9.442;2023-03-24T09:07:41;8.55;;;5.00;;
19973;SDS011;10148;47.694;9.442;2023-03-24T09:10:08;5.93;;;4.70;;
19973;SDS011;10148;47.694;9.442;2023-03-24T09:12:35;6.50;;;4.78;;
19973;SDS011;10148;47.694;9.442;2023-03-24T09:15:02;10.50;;;6.47;;
19973;SDS011;10148;47.694;9.442;2023-03-24T09:17:28;5.32;;;4.43;;
19973;SDS011;10148;47.694;9.442;2023-03-24T09:19:54;7.20;;;5.15;;
19973;SDS011;10148;47.694;9.442;2023-03-24T09:22:20;6.90;;;5.18;;
19973;SDS011;10148;47.694;9.442;2023-03-24T09:24:46;9.38;;;4.60;;
19973;SDS011;10148;47.694;9.442;2023-03-24T09:27:13;6.75;;;5.07;;
19973;SDS011;10148;47.694;9.442;2023-03-24T09:29:39;8.45;;;4.93;;
19973;SDS011;10148;47.694;9.442;2023-03-24T09:32:05;6.20;;;4.82;;
19973;SDS011;10148;47.694;9.442;2023-03-24T09:34:30;7.55;;;5.18;;
19973;SDS011;10148;47.694;9.442;2023-03-24T09:36:57;7.20;;;5.00;;
19973;SDS011;10148;47.694;9.442;2023-03-24T09:39:23;5.78;;;4.57;;
19973;SDS011;10148;47.694;9.442;2023-03-24T09:41:49;7.28;;;5.00;;
19973;SDS011;10148;47.694;9.442;2023-03-24T09:44:20;4.90;;;4.32;;
19973;SDS011;10148;47.694;9.442;2023-03-24T09:47:08;10.88;;;5.40;;
19973;SDS011;10148;47.694;9.442;2023-03-24T09:49:39;5.85;;;4.72;;
19973;SDS011;10148;47.694;9.442;2023-03-24T09:52:09;6.30;;;5.10;;
19973;SDS011;10148;47.694;9.442;2023-03-24T09:54:41;6.35;;;4.55;;
19973;SDS011;10148;47.694;9.442;2023-03-24T09:57:21;9.18;;;5.07;;
19973;SDS011;10148;47.694;9.442;2023-03-24T09:59:47;6.47;;;5.00;;
19973;SDS011;10148;47.694;9.442;2023-03-24T10:02:17;6.43;;;4.88;;
19973;SDS011;10148;47.694;9.442;2023-03-24T10:04:44;6.72;;;5.40;;
19973;SDS011;10148;47.694;9.442;2023-03-24T10:07:22;7.30;;;6.13;;
19973;SDS011;10148;47.694;9.442;2023-03-24T10:09:56;7.53;;;5.55;;
19973;SDS011;10148;47.694;9.442;2023-03-24T10:17:36;6.30;;;5.22;;
19973;SDS011;10148;47.694;9.442;2023-03-24T10:20:22;5.55;;;4.47;;
19973;SDS011;10148;47.694;9.442;2023-03-24T10:23:18;9.90;;;5.43;;
19973;SDS011;10148;47.694;9.442;2023-03-24T10:26:02;7.22;;;4.72;;
19973;SDS011;10148;47.694;9.442;2023-03-24T10:31:15;7.70;;;5.63;;
19973;SDS011;10148;47.694;9.442;2023-03-24T10:33:52;7.38;;;4.65;;
19973;SDS011;10148;47.694;9.442;2023-03-24T10:36:19;6.85;;;5.20;;
19973;SDS011;10148;47.694;9.442;2023-03-24T10:38:46;10.27;;;5.38;;
19973;SDS011;10148;47.694;9.442;2023-03-24T10:41:15;6.45;;;4.82;;
19973;SDS011;10148;47.694;9.442;2023-03-24T10:43:43;6.38;;;4.72;;
19973;SDS011;10148;47.694;9.442;2023-03-24T10:46:11;7.82;;;5.35;;
19973;SDS011;10148;47.694;9.442;2023-03-24T10:48:47;7.03;;;4.95;;
19973;SDS011;10148;47.694;9.442;2023-03-24T10:51:24;7.30;;;4.68;;
19973;SDS011;10148;47.694;9.442;2023-03-24T10:54:08;5.63;;;4.90;;
19973;SDS011;10148;47.694;9.442;2023-03-24T10:56:39;5.93;;;4.85;;
19973;SDS011;10148;47.694;9.442;2023-03-24T11:02:01;8.15;;;4.63;;
19973;SDS011;10148;47.694;9.442;2023-03-24T11:05:00;5.75;;;4.75;;
19973;SDS011;10148;47.694;9.442;2023-03-24T11:07:56;4.68;;;3.72;;
19973;SDS011;10148;47.694;9.442;2023-03-24T11:10:35;9.00;;;5.15;;
19973;SDS011;10148;47.694;9.442;2023-03-24T11:13:00;7.78;;;5.57;;
19973;SDS011;10148;47.694;9.442;2023-03-24T11:15:32;6.88;;;5.05;;
19973;SDS011;10148;47.694;9.442;2023-03-24T11:18:05;6.28;;;5.25;;
19973;SDS011;10148;47.694;9.442;2023-03-24T11:20:35;8.15;;;6.00;;
19973;SDS011;10148;47.694;9.442;2023-03-24T11:23:11;6.75;;;5.32;;
19973;SDS011;10148;47.694;9.442;2023-03-24T11:25:39;8.25;;;5.07;;
19973;SDS011;10148;47.694;9.442;2023-03-24T11:28:07;7.63;;;5.53;;
19973;SDS011;10148;47.694;9.442;2023-03-24T11:30:45;9.00;;;5.60;;
19973;SDS011;10148;47.694;9.442;2023-03-24T11:33:22;6.35;;;5.28;;
19973;SDS011;10148;47.694;9.442;2023-03-24T11:35:52;6.15;;;5.15;;
19973;SDS011;10148;47.694;9.442;2023-03-24T11:38:19;7.63;;;6.10;;
19973;SDS011;10148;47.694;9.442;2023-03-24T11:40:54;5.95;;;4.75;;
19973;SDS011;10148;47.694;9.442;2023-03-24T11:43:22;7.85;;;4.85;;
19973;SDS011;10148;47.694;9.442;2023-03-24T11:45:52;5.93;;;4.45;;
19973;SDS011;10148;47.694;9.442;2023-03-24T11:48:34;6.15;;;4.28;;
19973;SDS011;10148;47.694;9.442;2023-03-24T11:51:09;4.97;;;3.88;;
19973;SDS011;10148;47.694;9.442;2023-03-24T11:53:44;4.28;;;3.50;;
19973;SDS011;10148;47.694;9.442;2023-03-24T11:56:16;4.25;;;3.70;;
19973;SDS011;10148;47.694;9.442;2023-03-24T11:58:53;4.30;;;3.70;;
19973;SDS011;10148;47.694;9.442;2023-03-24T12:01:28;3.65;;;3.22;;
19973;SDS011;10148;47.694;9.442;2023-03-24T12:04:13;3.70;;;2.92;;
19973;SDS011;10148;47.694;9.442;2023-03-24T12:09:38;3.40;;;2.88;;
19973;SDS011;10148;47.694;9.442;2023-03-24T12:12:29;2.45;;;2.25;;
19973;SDS011;10148;47.694;9.442;2023-03-24T12:20:07;2.58;;;1.80;;
19973;SDS011;10148;47.694;9.442;2023-03-24T12:22:58;1.63;;;1.48;;
19973;SDS011;10148;47.694;9.442;2023-03-24T12:25:38;2.47;;;1.60;;
19973;SDS011;10148;47.694;9.442;2023-03-24T12:38:20;1.48;;;1.33;;
19973;SDS011;10148;47.694;9.442;2023-03-24T12:41:01;2.65;;;1.60;;
19973;SDS011;10148;47.694;9.442;2023-03-24T12:43:37;2.13;;;1.70;;
19973;SDS011;10148;47.694;9.442;2023-03-24T12:46:30;1.73;;;1.38;;
19973;SDS011;10148;47.694;9.442;2023-03-24T12:57:03;0.73;;;0.73;;
19973;SDS011;10148;47.694;9.442;2023-03-24T12:59:52;2.97;;;0.70;;
19973;SDS011;10148;47.694;9.442;2023-03-24T13:02:41;1.00;;;0.80;;
19973;SDS011;10148;47.694;9.442;2023-03-24T13:05:15;0.75;;;0.75;;
19973;SDS011;10148;47.694;9.442;2023-03-24T13:07:48;0.98;;;0.60;;
19973;SDS011;10148;47.694;9.442;2023-03-24T13:10:23;0.70;;;0.38;;
19973;SDS011;10148;47.694;9.442;2023-03-24T13:15:51;0.93;;;0.80;;
19973;SDS011;10148;47.694;9.442;2023-03-24T13:18:32;0.85;;;0.80;;
19973;SDS011;10148;47.694;9.442;2023-03-24T13:21:20;0.80;;;0.63;;
19973;SDS011;10148;47.694;9.442;2023-03-24T13:24:06;0.93;;;0.50;;
19973;SDS011;10148;47.694;9.442;2023-03-24T13:32:08;0.80;;;0.70;;
19973;SDS011;10148;47.694;9.442;2023-03-24T13:34:46;0.60;;;0.50;;
19973;SDS011;10148;47.694;9.442;2023-03-24T13:37:20;1.20;;;0.88;;
19973;SDS011;10148;47.694;9.442;2023-03-24T13:39:51;0.70;;;0.60;;
19973;SDS011;10148;47.694;9.442;2023-03-24T13:42:31;2.10;;;1.33;;
19973;SDS011;10148;47.694;9.442;2023-03-24T13:45:00;2.42;;;0.93;;
19973;SDS011;10148;47.694;9.442;2023-03-24T13:50:14;1.35;;;0.85;;
19973;SDS011;10148;47.694;9.442;2023-03-24T13:52:45;1.25;;;0.82;;
19973;SDS011;10148;47.694;9.442;2023-03-24T13:55:24;0.55;;;0.50;;
19973;SDS011;10148;47.694;9.442;2023-03-24T13:57:54;0.40;;;0.40;;
19973;SDS011;10148;47.694;9.442;2023-03-24T14:00:22;0.47;;;0.40;;
19973;SDS011;10148;47.694;9.442;2023-03-24T14:03:30;0.60;;;0.50;;
19973;SDS011;10148;47.694;9.442;2023-03-24T14:06:00;0.63;;;0.30;;
19973;SDS011;10148;47.694;9.442;2023-03-24T14:08:42;0.43;;;0.40;;
19973;SDS011;10148;47.694;9.442;2023-03-24T14:11:20;0.70;;;0.43;;
19973;SDS011;10148;47.694;9.442;2023-03-24T14:14:15;0.32;;;0.30;;
19973;SDS011;10148;47.694;9.442;2023-03-24T14:22:02;1.00;;;0.57;;
19973;SDS011;10148;47.694;9.442;2023-03-24T14:24:28;0.43;;;0.38;;
19973;SDS011;10148;47.694;9.442;2023-03-24T14:26:56;0.40;;;0.40;;
19973;SDS011;10148;47.694;9.442;2023-03-24T14:29:39;0.63;;;0.30;;
19973;SDS011;10148;47.694;9.442;2023-03-24T14:32:14;0.50;;;0.40;;
19973;SDS011;10148;47.694;9.442;2023-03-24T14:37:52;0.50;;;0.35;;
19973;SDS011;10148;47.694;9.442;2023-03-24T14:40:24;0.40;;;0.30;;
19973;SDS011;10148;47.694;9.442;2023-03-24T14:43:03;0.75;;;0.43;;
19973;SDS011;10148;47.694;9.442;2023-03-24T14:45:41;0.60;;;0.30;;
19973;SDS011;10148;47.694;9.442;2023-03-24T14:51:15;0.68;;;0.60;;
19973;SDS011;10148;47.694;9.442;2023-03-24T14:53:49;1.80;;;0.50;;
19973;SDS011;10148;47.694;9.442;2023-03-24T14:56:20;0.30;;;0.30;;
19973;SDS011;10148;47.694;9.442;2023-03-24T14:58:47;1.75;;;0.40;;
19973;SDS011;10148;47.694;9.442;2023-03-24T15:01:17;0.30;;;0.30;;
19973;SDS011;10148;47.694;9.442;2023-03-24T15:03:50;1.05;;;0.40;;
19973;SDS011;10148;47.694;9.442;2023-03-24T15:06:22;0.75;;;0.50;;
19973;SDS011;10148;47.694;9.442;2023-03-24T15:08:51;0.70;;;0.40;;
19973;SDS011;10148;47.694;9.442;2023-03-24T15:11:29;1.17;;;0.52;;
19973;SDS011;10148;47.694;9.442;2023-03-24T15:14:01;0.40;;;0.40;;
19973;SDS011;10148;47.694;9.442;2023-03-24T15:16:29;1.23;;;0.47;;
19973;SDS011;10148;47.694;9.442;2023-03-24T15:19:03;1.17;;;0.50;;
19973;SDS011;10148;47.694;9.442;2023-03-24T15:21:46;1.75;;;0.85;;
19973;SDS011;10148;47.694;9.442;2023-03-24T15:26:45;1.05;;;0.70;;
19973;SDS011;10148;47.694;9.442;2023-03-24T15:29:11;2.45;;;0.60;;
19973;SDS011;10148;47.694;9.442;2023-03-24T15:31:36;0.70;;;0.50;;
19973;SDS011;10148;47.694;9.442;2023-03-24T15:36:53;0.57;;;0.45;;
19973;SDS011;10148;47.694;9.442;2023-03-24T15:39:23;0.82;;;0.65;;
19973;SDS011;10148;47.694;9.442;2023-03-24T15:41:51;0.50;;;0.30;;
19973;SDS011;10148;47.694;9.442;2023-03-24T15:44:18;0.90;;;0.55;;
19973;SDS011;10148;47.694;9.442;2023-03-24T15:46:45;1.00;;;0.60;;
19973;SDS011;10148;47.694;9.442;2023-03-24T15:49:17;1.17;;;0.45;;
19973;SDS011;10148;47.694;9.442;2023-03-24T15:51:48;1.85;;;0.60;;
19973;SDS011;10148;47.694;9.442;2023-03-24T15:54:36;1.65;;;0.68;;
19973;SDS011;10148;47.694;9.442;2023-03-24T15:57:12;2.20;;;0.68;;
19973;SDS011;10148;47.694;9.442;2023-03-24T16:00:34;1.10;;;0.50;;
19973;SDS011;10148;47.694;9.442;2023-03-24T16:02:47;1.55;;;0.57;;
19973;SDS011;10148;47.694;9.442;2023-03-24T16:05:19;0.80;;;0.43;;
19973;SDS011;10148;47.694;9.442;2023-03-24T16:07:57;1.13;;;0.47;;
19973;SDS011;10148;47.694;9.442;2023-03-24T16:13:22;0.68;;;0.50;;
19973;SDS011;10148;47.694;9.442;2023-03-24T16:15:52;0.98;;;0.50;;
19973;SDS011;10148;47.694;9.442;2023-03-24T16:18:37;0.70;;;0.68;;
19973;SDS011;10148;47.694;9.442;2023-03-24T16:21:09;2.13;;;0.38;;
19973;SDS011;10148;47.694;9.442;2023-03-24T16:23:40;0.55;;;0.40;;
19973;SDS011;10148;47.694;9.442;2023-03-24T16:26:10;0.68;;;0.52;;
19973;SDS011;10148;47.694;9.442;2023-03-24T16:28:41;0.65;;;0.47;;
19973;SDS011;10148;47.694;9.442;2023-03-24T16:31:10;0.60;;;0.35;;
19973;SDS011;10148;47.694;9.442;2023-03-24T16:33:48;1.30;;;0.38;;
19973;SDS011;10148;47.694;9.442;2023-03-24T16:36:17;0.93;;;0.32;;
19973;SDS011;10148;47.694;9.442;2023-03-24T16:38:43;0.88;;;0.55;;
19973;SDS011;10148;47.694;9.442;2023-03-24T16:41:10;0.57;;;0.40;;
19973;SDS011;10148;47.694;9.442;2023-03-24T16:43:37;0.50;;;0.30;;
19973;SDS011;10148;47.694;9.442;2023-03-24T16:46:16;0.33;;;0.30;;
19973;SDS011;10148;47.694;9.442;2023-03-24T16:48:45;0.88;;;0.57;;
19973;SDS011;10148;47.694;9.442;2023-03-24T16:51:11;0.87;;;0.50;;
19973;SDS011;10148;47.694;9.442;2023-03-24T16:53:38;0.75;;;0.43;;
19973;SDS011;10148;47.694;9.442;2023-03-24T16:56:04;0.50;;;0.50;;
19973;SDS011;10148;47.694;9.442;2023-03-24T16:58:31;0.80;;;0.52;;
19973;SDS011;10148;47.694;9.442;2023-03-24T17:00:56;0.97;;;0.60;;